createdAt,value
2018-09-13T00:00:01.405Z,7.30
2018-09-13T00:01:01.580Z,8.20
2018-09-13T00:02:01.770Z,10.10
2018-09-13T00:03:01.969Z,9.40
2018-09-13T00:04:02.162Z,7.00
2018-09-13T00:05:02.356Z,8.90
2018-09-13T00:06:02.550Z,6.80
2018-09-13T00:07:02.733Z,6.80
2018-09-13T00:08:02.927Z,6.20
2018-09-13T00:09:03.122Z,6.80
2018-09-13T00:10:03.313Z,7.30
2018-09-13T00:11:03.499Z,8.70
2018-09-13T00:12:03.696Z,7.10
2018-09-13T00:13:03.885Z,7.90
2018-09-13T00:14:04.077Z,7.40
2018-09-13T00:15:04.265Z,7.90
2018-09-13T00:16:04.455Z,8.50
2018-09-13T00:17:04.649Z,9.90
2018-09-13T00:18:04.838Z,7.20
2018-09-13T00:19:05.036Z,8.30
2018-09-13T00:20:05.225Z,9.90
2018-09-13T00:21:05.412Z,10.10
2018-09-13T00:22:05.600Z,6.90
2018-09-13T00:23:05.789Z,8.00
2018-09-13T00:24:05.984Z,7.80
2018-09-13T00:25:06.169Z,7.40
2018-09-13T00:26:06.356Z,7.70
2018-09-13T00:27:06.548Z,7.80
2018-09-13T00:28:06.737Z,7.20
2018-09-13T00:29:06.928Z,8.50
2018-09-13T00:30:07.120Z,7.80
2018-09-13T00:31:07.309Z,7.00
2018-09-13T00:32:07.502Z,8.30
2018-09-13T00:33:07.686Z,7.10
2018-09-13T00:34:07.876Z,8.50
2018-09-13T00:35:08.064Z,6.70
2018-09-13T00:36:08.257Z,7.60
2018-09-13T00:37:08.449Z,7.50
2018-09-13T00:38:08.638Z,7.40
2018-09-13T00:39:08.825Z,7.60
2018-09-13T00:40:09.016Z,7.90
2018-09-13T00:41:09.209Z,11.20
2018-09-13T00:42:09.396Z,7.20
2018-09-13T00:43:09.586Z,6.70
2018-09-13T00:44:09.775Z,7.10
2018-09-13T00:45:09.966Z,7.60
2018-09-13T00:46:10.158Z,7.80
2018-09-13T00:47:10.348Z,6.90
2018-09-13T00:48:10.536Z,6.90
2018-09-13T00:49:10.729Z,9.40
2018-09-13T00:50:10.924Z,7.70
2018-09-13T00:51:11.114Z,7.40
2018-09-13T00:52:11.305Z,7.50
2018-09-13T00:53:11.493Z,7.90
2018-09-13T00:54:11.684Z,7.00
2018-09-13T00:55:11.884Z,8.00
2018-09-13T00:56:12.074Z,8.50
2018-09-13T00:57:12.258Z,7.40
2018-09-13T00:58:12.452Z,8.50
2018-09-13T00:59:12.641Z,7.20
2018-09-13T01:00:12.828Z,7.30
2018-09-13T01:01:13.027Z,7.10
2018-09-13T01:02:13.205Z,8.10
2018-09-13T01:03:13.401Z,7.80
2018-09-13T01:04:13.584Z,6.10
2018-09-13T01:05:13.781Z,9.20
2018-09-13T01:06:13.967Z,5.70
2018-09-13T01:07:14.160Z,7.60
2018-09-13T01:08:14.350Z,7.20
2018-09-13T01:09:14.537Z,6.70
2018-09-13T01:10:14.727Z,6.90
2018-09-13T01:11:14.916Z,6.50
2018-09-13T01:12:15.111Z,6.90
2018-09-13T01:13:15.297Z,7.60
2018-09-13T01:14:15.484Z,6.30
2018-09-13T01:15:15.673Z,7.40
2018-09-13T01:16:15.870Z,7.50
2018-09-13T01:17:16.060Z,9.20
2018-09-13T01:18:16.247Z,7.70
2018-09-13T01:19:16.436Z,8.40
2018-09-13T01:20:16.628Z,8.50
2018-09-13T01:21:16.816Z,10.20
2018-09-13T01:22:17.010Z,9.20
2018-09-13T01:23:17.203Z,7.60
2018-09-13T01:24:17.385Z,7.50
2018-09-13T01:25:17.575Z,7.90
2018-09-13T01:26:17.768Z,8.50
2018-09-13T01:27:17.957Z,12.20
2018-09-13T01:28:18.148Z,7.30
2018-09-13T01:29:18.342Z,10.90
2018-09-13T01:30:18.529Z,8.80
2018-09-13T01:31:18.719Z,8.30
2018-09-13T01:32:18.909Z,7.40
2018-09-13T01:33:19.092Z,7.90
2018-09-13T01:34:19.286Z,8.40
2018-09-13T01:35:19.478Z,8.10
2018-09-13T01:36:19.667Z,7.80
2018-09-13T01:37:19.858Z,11.30
2018-09-13T01:38:20.050Z,8.80
2018-09-13T01:39:20.244Z,7.80
2018-09-13T01:40:20.437Z,8.30
2018-09-13T01:41:20.622Z,8.80
2018-09-13T01:42:20.810Z,9.50
2018-09-13T01:43:21.000Z,9.20
2018-09-13T01:44:21.190Z,8.80
2018-09-13T01:45:21.383Z,9.50
2018-09-13T01:46:21.575Z,7.40
2018-09-13T01:47:21.766Z,8.70
2018-09-13T01:48:21.958Z,8.20
2018-09-13T01:49:22.148Z,7.10
2018-09-13T01:50:22.339Z,9.50
2018-09-13T01:51:22.527Z,9.50
2018-09-13T01:52:22.718Z,9.30
2018-09-13T01:53:22.909Z,9.70
2018-09-13T01:54:23.095Z,11.00
2018-09-13T01:55:23.293Z,12.10
2018-09-13T01:56:23.484Z,10.00
2018-09-13T01:57:23.680Z,11.20
2018-09-13T01:58:23.866Z,10.20
2018-09-13T01:59:24.061Z,9.60
2018-09-13T02:00:24.251Z,11.90
2018-09-13T02:01:24.438Z,10.60
2018-09-13T02:02:24.626Z,13.10
2018-09-13T02:03:24.821Z,12.30
2018-09-13T02:04:25.018Z,11.60
2018-09-13T02:05:25.199Z,12.20
2018-09-13T02:06:25.391Z,10.80
2018-09-13T02:07:25.584Z,11.20
2018-09-13T02:08:25.773Z,10.40
2018-09-13T02:09:25.970Z,10.10
2018-09-13T02:10:26.154Z,9.90
2018-09-13T02:11:26.346Z,9.20
2018-09-13T02:12:26.539Z,12.20
2018-09-13T02:13:26.729Z,11.50
2018-09-13T02:14:26.918Z,9.70
2018-09-13T02:15:27.105Z,8.70
2018-09-13T02:16:27.297Z,8.70
2018-09-13T02:17:27.492Z,10.00
2018-09-13T02:18:27.679Z,11.90
2018-09-13T02:19:27.883Z,8.50
2018-09-13T02:20:28.063Z,9.20
2018-09-13T02:21:28.252Z,10.10
2018-09-13T02:22:28.443Z,13.00
2018-09-13T02:23:28.642Z,11.70
2018-09-13T02:24:28.830Z,10.20
2018-09-13T02:25:29.024Z,10.90
2018-09-13T02:26:29.211Z,10.90
2018-09-13T02:27:29.396Z,11.50
2018-09-13T02:28:29.589Z,9.70
2018-09-13T02:29:29.780Z,11.40
2018-09-13T02:30:29.972Z,9.80
2018-09-13T02:31:30.161Z,13.10
2018-09-13T02:32:30.355Z,9.90
2018-09-13T02:33:30.542Z,9.60
2018-09-13T02:34:30.735Z,9.30
2018-09-13T02:35:30.925Z,10.10
2018-09-13T02:36:31.111Z,9.70
2018-09-13T02:37:31.304Z,8.60
2018-09-13T02:38:31.491Z,10.10
2018-09-13T02:39:31.681Z,10.20
2018-09-13T02:40:31.873Z,10.60
2018-09-13T02:41:32.065Z,10.70
2018-09-13T02:42:32.254Z,11.30
2018-09-13T02:43:32.448Z,10.10
2018-09-13T02:44:32.644Z,11.90
2018-09-13T02:45:32.839Z,8.40
2018-09-13T02:46:33.026Z,9.10
2018-09-13T02:47:33.212Z,10.20
2018-09-13T02:48:33.402Z,9.70
2018-09-13T02:49:33.595Z,9.40
2018-09-13T02:50:33.780Z,9.20
2018-09-13T02:51:33.974Z,9.40
2018-09-13T02:52:34.161Z,9.20
2018-09-13T02:53:34.910Z,9.50
2018-09-13T02:54:35.411Z,9.80
2018-09-13T02:55:34.720Z,9.50
2018-09-13T02:56:34.913Z,10.20
2018-09-13T02:57:35.105Z,8.10
2018-09-13T02:58:35.293Z,9.40
2018-09-13T02:59:35.480Z,10.40
2018-09-13T03:00:35.678Z,10.00
2018-09-13T03:01:35.862Z,9.20
2018-09-13T03:02:36.055Z,8.60
2018-09-13T03:03:36.243Z,10.70
2018-09-13T03:04:36.434Z,10.50
2018-09-13T03:05:36.632Z,10.70
2018-09-13T03:06:36.819Z,9.10
2018-09-13T03:07:37.010Z,8.90
2018-09-13T03:08:37.199Z,8.70
2018-09-13T03:09:37.391Z,7.70
2018-09-13T03:10:37.580Z,8.70
2018-09-13T03:11:37.772Z,9.60
2018-09-13T03:12:37.963Z,9.10
2018-09-13T03:13:38.153Z,9.00
2018-09-13T03:14:38.352Z,11.00
2018-09-13T03:15:38.538Z,10.10
2018-09-13T03:16:38.734Z,9.90
2018-09-13T03:17:38.928Z,11.30
2018-09-13T03:18:39.120Z,8.50
2018-09-13T03:19:39.312Z,7.10
2018-09-13T03:20:40.424Z,8.10
2018-09-13T03:21:39.746Z,13.80
2018-09-13T03:22:39.935Z,8.70
2018-09-13T03:23:40.124Z,8.40
2018-09-13T03:24:40.320Z,9.70
2018-09-13T03:25:40.511Z,7.90
2018-09-13T03:26:40.697Z,9.60
2018-09-13T03:27:40.892Z,7.70
2018-09-13T03:28:41.078Z,7.20
2018-09-13T03:29:41.273Z,12.80
2018-09-13T03:30:41.455Z,8.00
2018-09-13T03:31:41.649Z,8.90
2018-09-13T03:32:41.842Z,9.80
2018-09-13T03:33:42.034Z,8.10
2018-09-13T03:34:42.229Z,8.40
2018-09-13T03:35:42.419Z,7.10
2018-09-13T03:36:42.610Z,8.70
2018-09-13T03:37:42.806Z,7.50
2018-09-13T03:38:42.995Z,7.80
2018-09-13T03:39:43.200Z,7.80
2018-09-13T03:40:43.373Z,8.30
2018-09-13T03:41:43.560Z,7.70
2018-09-13T03:42:43.755Z,10.70
2018-09-13T03:43:43.944Z,8.90
2018-09-13T03:44:44.133Z,8.00
2018-09-13T03:45:44.324Z,9.90
2018-09-13T03:46:44.531Z,8.60
2018-09-13T03:47:44.715Z,6.50
2018-09-13T03:48:44.899Z,8.70
2018-09-13T03:49:45.087Z,8.60
2018-09-13T03:50:45.288Z,9.30
2018-09-13T03:51:45.476Z,8.40
2018-09-13T03:52:45.680Z,10.30
2018-09-13T03:53:45.861Z,8.30
2018-09-13T03:54:46.052Z,7.40
2018-09-13T03:55:46.245Z,8.80
2018-09-13T03:56:46.435Z,8.50
2018-09-13T03:57:46.621Z,8.00
2018-09-13T03:58:46.825Z,11.10
2018-09-13T03:59:47.019Z,9.60
2018-09-13T04:00:47.209Z,9.70
2018-09-13T04:01:47.398Z,8.90
2018-09-13T04:02:47.592Z,9.20
2018-09-13T04:03:47.785Z,8.10
2018-09-13T04:04:47.976Z,9.10
2018-09-13T04:05:48.164Z,7.90
2018-09-13T04:06:48.354Z,9.00
2018-09-13T04:07:48.549Z,9.30
2018-09-13T04:08:48.741Z,8.60
2018-09-13T04:09:48.931Z,8.30
2018-09-13T04:10:49.120Z,8.50
2018-09-13T04:11:49.312Z,9.50
2018-09-13T04:12:50.435Z,10.40
2018-09-13T04:13:49.676Z,10.10
2018-09-13T04:14:49.870Z,9.40
2018-09-13T04:15:50.061Z,8.70
2018-09-13T04:16:50.251Z,9.40
2018-09-13T04:17:50.443Z,9.10
2018-09-13T04:18:50.739Z,8.90
2018-09-13T04:19:51.437Z,8.00
2018-09-13T04:20:51.008Z,9.40
2018-09-13T04:21:51.207Z,7.70
2018-09-13T04:22:51.392Z,12.00
2018-09-13T04:23:51.577Z,11.40
2018-09-13T04:24:51.773Z,10.70
2018-09-13T04:25:51.961Z,7.70
2018-09-13T04:26:52.146Z,7.80
2018-09-13T04:27:52.338Z,7.60
2018-09-13T04:28:52.528Z,9.30
2018-09-13T04:29:52.724Z,7.80
2018-09-13T04:30:52.915Z,10.10
2018-09-13T04:31:53.105Z,9.20
2018-09-13T04:32:53.299Z,8.70
2018-09-13T04:33:53.491Z,9.80
2018-09-13T04:34:53.673Z,9.20
2018-09-13T04:35:53.966Z,10.40
2018-09-13T04:36:54.061Z,11.10
2018-09-13T04:37:54.248Z,9.10
2018-09-13T04:38:54.442Z,8.30
2018-09-13T04:39:54.632Z,7.10
2018-09-13T04:40:54.821Z,8.00
2018-09-13T04:41:55.010Z,9.50
2018-09-13T04:42:55.200Z,9.50
2018-09-13T04:43:55.391Z,7.90
2018-09-13T04:44:55.578Z,9.20
2018-09-13T04:45:55.765Z,9.30
2018-09-13T04:46:55.957Z,10.60
2018-09-13T04:47:56.153Z,10.60
2018-09-13T04:48:56.344Z,8.40
2018-09-13T04:49:56.532Z,7.20
2018-09-13T04:50:56.730Z,8.40
2018-09-13T04:51:56.918Z,10.60
2018-09-13T04:52:57.108Z,10.60
2018-09-13T04:53:57.305Z,8.50
2018-09-13T04:54:57.491Z,8.30
2018-09-13T04:55:57.684Z,8.40
2018-09-13T04:56:57.877Z,9.50
2018-09-13T04:57:58.064Z,8.90
2018-09-13T04:58:58.252Z,9.60
2018-09-13T04:59:58.447Z,9.10
2018-09-13T05:00:58.633Z,9.50
2018-09-13T05:01:58.833Z,9.70
2018-09-13T05:02:59.026Z,9.30
2018-09-13T05:03:59.216Z,9.30
2018-09-13T05:04:59.409Z,9.80
2018-09-13T05:05:59.604Z,8.10
2018-09-13T05:06:59.801Z,9.00
2018-09-13T05:07:59.988Z,8.80
2018-09-13T05:09:00.183Z,8.90
2018-09-13T05:10:00.372Z,8.90
2018-09-13T05:11:00.559Z,8.80
2018-09-13T05:12:00.750Z,8.90
2018-09-13T05:13:00.949Z,9.70
2018-09-13T05:14:01.127Z,9.30
2018-09-13T05:15:01.318Z,9.10
2018-09-13T05:16:01.546Z,8.90
2018-09-13T05:17:01.702Z,7.10
2018-09-13T05:18:01.885Z,8.70
2018-09-13T05:19:02.177Z,8.40
2018-09-13T05:20:02.266Z,8.00
2018-09-13T05:21:02.482Z,8.10
2018-09-13T05:22:02.647Z,10.20
2018-09-13T05:23:03.065Z,7.80
2018-09-13T05:24:03.156Z,7.70
2018-09-13T05:25:03.298Z,7.20
2018-09-13T05:26:03.498Z,8.60
2018-09-13T05:27:03.682Z,6.60
2018-09-13T05:28:03.891Z,7.20
2018-09-13T05:29:04.081Z,7.70
2018-09-13T05:30:04.270Z,8.20
2018-09-13T05:31:04.472Z,11.20
2018-09-13T05:32:04.669Z,10.00
2018-09-13T05:33:04.850Z,7.70
2018-09-13T05:34:05.049Z,8.10
2018-09-13T05:35:05.236Z,8.20
2018-09-13T05:36:05.428Z,10.60
2018-09-13T05:37:05.643Z,8.90
2018-09-13T05:38:05.804Z,8.30
2018-09-13T05:39:05.996Z,8.90
2018-09-13T05:40:06.188Z,7.20
2018-09-13T05:41:06.376Z,7.40
2018-09-13T05:42:06.565Z,7.40
2018-09-13T05:43:06.756Z,6.90
2018-09-13T05:44:06.943Z,8.20
2018-09-13T05:45:07.135Z,7.40
2018-09-13T05:46:07.329Z,7.50
2018-09-13T05:47:07.518Z,8.00
2018-09-13T05:48:07.706Z,7.50
2018-09-13T05:49:07.898Z,9.20
2018-09-13T05:50:08.089Z,8.50
2018-09-13T05:51:08.329Z,7.40
2018-09-13T05:52:08.476Z,8.80
2018-09-13T05:53:08.666Z,9.20
2018-09-13T05:54:08.858Z,9.40
2018-09-13T05:55:09.046Z,9.10
2018-09-13T05:56:09.243Z,7.70
2018-09-13T05:57:09.440Z,7.70
2018-09-13T05:58:09.673Z,6.50
2018-09-13T05:59:09.818Z,11.20
2018-09-13T06:00:10.005Z,9.60
2018-09-13T06:01:10.199Z,9.40
2018-09-13T06:02:10.386Z,7.70
2018-09-13T06:03:10.578Z,6.40
2018-09-13T06:04:10.767Z,7.90
2018-09-13T06:05:10.960Z,8.60
2018-09-13T06:06:11.151Z,9.00
2018-09-13T06:07:11.339Z,7.30
2018-09-13T06:08:11.532Z,9.10
2018-09-13T06:09:11.726Z,9.00
2018-09-13T06:10:11.919Z,8.90
2018-09-13T06:11:12.111Z,9.00
2018-09-13T06:12:12.307Z,9.80
2018-09-13T06:13:12.503Z,9.30
2018-09-13T06:14:12.690Z,9.30
2018-09-13T06:15:12.882Z,8.20
2018-09-13T06:16:13.080Z,9.50
2018-09-13T06:17:13.277Z,10.80
2018-09-13T06:18:13.466Z,11.00
2018-09-13T06:19:13.657Z,7.90
2018-09-13T06:20:13.852Z,8.70
2018-09-13T06:21:14.037Z,10.40
2018-09-13T06:22:14.224Z,9.80
2018-09-13T06:23:14.420Z,10.20
2018-09-13T06:24:14.609Z,7.50
2018-09-13T06:25:14.808Z,8.60
2018-09-13T06:26:15.002Z,9.00
2018-09-13T06:27:15.199Z,12.40
2018-09-13T06:28:15.383Z,10.00
2018-09-13T06:29:15.573Z,7.70
2018-09-13T06:30:15.760Z,7.10
2018-09-13T06:31:15.955Z,8.40
2018-09-13T06:32:16.148Z,9.80
2018-09-13T06:33:16.334Z,10.30
2018-09-13T06:34:16.529Z,9.90
2018-09-13T06:35:16.726Z,9.30
2018-09-13T06:36:16.923Z,8.50
2018-09-13T06:37:17.107Z,10.80
2018-09-13T06:38:17.362Z,8.40
2018-09-13T06:39:17.487Z,10.80
2018-09-13T06:40:17.684Z,8.00
2018-09-13T06:41:17.870Z,9.00
2018-09-13T06:42:18.072Z,7.40
2018-09-13T06:43:18.254Z,9.40
2018-09-13T06:44:18.435Z,7.20
2018-09-13T06:45:18.622Z,8.50
2018-09-13T06:46:18.819Z,9.70
2018-09-13T06:47:19.007Z,7.90
2018-09-13T06:48:19.197Z,9.30
2018-09-13T06:49:19.386Z,8.40
2018-09-13T06:50:19.575Z,8.70
2018-09-13T06:51:19.767Z,7.60
2018-09-13T06:52:19.951Z,9.10
2018-09-13T06:53:20.139Z,10.50
2018-09-13T06:54:20.328Z,7.00
2018-09-13T06:55:20.526Z,9.80
2018-09-13T06:56:20.724Z,9.40
2018-09-13T06:57:20.917Z,9.60
2018-09-13T06:58:21.106Z,9.10
2018-09-13T06:59:21.310Z,7.80
2018-09-13T07:00:21.498Z,9.20
2018-09-13T07:01:21.688Z,9.20
2018-09-13T07:02:21.881Z,10.10
2018-09-13T07:03:22.066Z,9.00
2018-09-13T07:04:22.258Z,8.40
2018-09-13T07:05:22.448Z,10.80
2018-09-13T07:06:22.638Z,10.40
2018-09-13T07:07:22.832Z,9.40
2018-09-13T07:08:23.022Z,10.70
2018-09-13T07:09:23.215Z,8.90
2018-09-13T07:10:23.402Z,8.00
2018-09-13T07:11:23.592Z,8.80
2018-09-13T07:12:23.786Z,9.00
2018-09-13T07:13:23.983Z,8.60
2018-09-13T07:14:24.166Z,9.30
2018-09-13T07:15:24.360Z,7.90
2018-09-13T07:16:24.549Z,11.10
2018-09-13T07:17:24.741Z,9.30
2018-09-13T07:18:24.933Z,10.90
2018-09-13T07:19:25.125Z,10.00
2018-09-13T07:20:25.319Z,9.00
2018-09-13T07:21:25.513Z,10.10
2018-09-13T07:22:25.696Z,11.20
2018-09-13T07:23:25.933Z,10.30
2018-09-13T07:24:26.105Z,9.80
2018-09-13T07:25:26.283Z,12.00
2018-09-13T07:26:26.472Z,12.60
2018-09-13T07:27:26.660Z,12.20
2018-09-13T07:28:26.853Z,12.80
2018-09-13T07:29:27.044Z,10.40
2018-09-13T07:30:27.238Z,16.80
2018-09-13T07:31:27.427Z,13.20
2018-09-13T07:32:27.639Z,11.60
2018-09-13T07:33:27.820Z,12.70
2018-09-13T07:34:28.015Z,12.50
2018-09-13T07:35:28.196Z,12.00
2018-09-13T07:36:28.390Z,11.50
2018-09-13T07:37:28.571Z,12.50
2018-09-13T07:38:28.785Z,13.60
2018-09-13T07:39:28.978Z,15.70
2018-09-13T07:40:29.174Z,13.40
2018-09-13T07:41:29.362Z,12.00
2018-09-13T07:42:29.730Z,15.30
2018-09-13T07:43:29.775Z,12.90
2018-09-13T07:44:29.966Z,12.90
2018-09-13T07:45:30.159Z,17.40
2018-09-13T07:46:30.349Z,14.10
2018-09-13T07:47:30.539Z,14.40
2018-09-13T07:48:30.731Z,13.30
2018-09-13T07:49:30.997Z,16.30
2018-09-13T07:50:31.119Z,13.50
2018-09-13T07:51:31.314Z,14.70
2018-09-13T07:52:31.509Z,14.00
2018-09-13T07:53:31.701Z,15.20
2018-09-13T07:54:31.901Z,14.40
2018-09-13T07:55:32.089Z,13.50
2018-09-13T07:56:32.332Z,13.10
2018-09-13T07:57:32.554Z,14.90
2018-09-13T07:58:32.673Z,15.00
2018-09-13T07:59:32.863Z,15.10
2018-09-13T08:00:33.059Z,12.10
2018-09-13T08:01:33.250Z,11.60
2018-09-13T08:02:33.447Z,13.10
2018-09-13T14:08:20.978Z,15.10
2018-09-13T14:09:21.166Z,13.30
2018-09-13T14:10:21.374Z,12.90
2018-09-13T14:11:21.567Z,15.70
2018-09-13T14:12:21.765Z,14.90
2018-09-13T14:13:21.962Z,15.40
2018-09-13T14:14:22.157Z,15.70
2018-09-13T14:15:22.356Z,19.40
2018-09-13T14:16:22.551Z,15.30
2018-09-13T14:17:22.739Z,15.70
2018-09-13T14:18:22.944Z,13.60
2018-09-13T14:19:23.142Z,14.60
2018-09-13T14:20:23.384Z,15.60
2018-09-13T14:21:23.542Z,19.70
2018-09-13T14:22:23.744Z,16.60
2018-09-13T14:23:23.937Z,15.60
2018-09-13T14:24:24.130Z,17.10
2018-09-13T14:25:24.338Z,15.80
2018-09-13T14:26:24.529Z,15.40
2018-09-13T14:27:24.724Z,14.70
2018-09-13T14:28:24.929Z,13.70
2018-09-13T14:29:25.125Z,14.70
2018-09-13T14:30:25.322Z,18.40
2018-09-13T14:31:25.520Z,14.80
2018-09-13T14:32:25.717Z,15.40
2018-09-13T14:33:25.912Z,13.90
2018-09-13T14:34:26.106Z,14.70
2018-09-13T14:35:26.351Z,14.40
2018-09-13T14:36:26.504Z,14.20
2018-09-13T14:37:26.720Z,15.90
2018-09-13T14:38:26.910Z,16.70
2018-09-13T14:39:27.110Z,19.10
2018-09-13T14:40:27.302Z,15.20
2018-09-13T14:41:27.587Z,13.10
2018-09-13T14:42:27.698Z,13.80
2018-09-13T14:43:27.888Z,13.80
2018-09-13T14:44:28.080Z,15.20
2018-09-13T14:45:28.275Z,13.80
2018-09-13T14:46:28.464Z,14.90
2018-09-13T14:47:28.682Z,15.30
2018-09-13T14:48:28.857Z,16.20
2018-09-13T14:49:29.052Z,15.80
2018-09-13T14:50:29.249Z,15.80
2018-09-13T14:51:29.447Z,14.10
2018-09-13T14:52:29.652Z,16.30
2018-09-13T14:53:29.851Z,15.20
2018-09-13T14:54:30.043Z,16.80
2018-09-13T14:55:30.231Z,16.60
2018-09-13T14:56:30.433Z,13.50
2018-09-13T14:57:30.636Z,16.10
2018-09-13T14:58:30.831Z,18.70
2018-09-13T14:59:31.022Z,16.20
2018-09-13T15:00:31.218Z,17.50
2018-09-13T15:01:31.414Z,15.70
2018-09-13T15:02:31.604Z,15.60
2018-09-13T15:03:31.799Z,14.00
2018-09-13T15:04:31.991Z,15.20
2018-09-13T15:05:32.185Z,15.00
2018-09-13T15:06:32.377Z,15.70
2018-09-13T15:07:32.754Z,13.40
2018-09-13T15:08:32.759Z,14.20
2018-09-13T15:09:32.955Z,14.60
2018-09-13T15:10:33.158Z,12.20
2018-09-13T15:11:33.359Z,15.60
2018-09-13T15:12:33.561Z,15.90
2018-09-13T15:13:33.801Z,15.50
2018-09-13T15:14:33.969Z,14.70
2018-09-13T15:15:34.144Z,13.30
2018-09-13T15:16:34.340Z,15.70
2018-09-13T15:17:34.531Z,16.20
2018-09-13T15:18:34.723Z,15.90
2018-09-13T15:19:34.920Z,16.20
2018-09-13T15:20:35.124Z,12.80
2018-09-13T15:21:35.310Z,14.00
2018-09-13T15:22:35.507Z,14.80
2018-09-13T15:23:35.700Z,16.00
2018-09-13T15:24:35.990Z,16.90
2018-09-13T15:25:36.087Z,17.50
2018-09-13T15:26:36.282Z,16.00
2018-09-13T15:27:36.476Z,13.80
2018-09-13T15:28:36.670Z,14.00
2018-09-13T15:29:36.861Z,17.30
2018-09-13T15:30:37.055Z,18.40
2018-09-13T15:31:37.249Z,16.10
2018-09-13T15:32:37.439Z,16.90
2018-09-13T15:33:37.642Z,13.70
2018-09-13T15:34:37.836Z,15.40
2018-09-13T15:35:38.026Z,17.70
2018-09-13T15:36:38.213Z,15.50
2018-09-13T15:37:38.405Z,15.80
2018-09-13T15:38:38.667Z,16.90
2018-09-13T15:39:38.805Z,15.60
2018-09-13T15:40:39.003Z,21.40
2018-09-13T15:41:39.193Z,13.80
2018-09-13T15:42:39.380Z,15.30
2018-09-13T15:43:39.580Z,19.20
2018-09-13T15:44:39.783Z,18.00
2018-09-13T15:45:39.974Z,16.30
2018-09-13T15:46:40.160Z,13.70
2018-09-13T15:47:40.353Z,18.10
2018-09-13T15:48:40.550Z,18.90
2018-09-13T15:49:40.741Z,16.60
2018-09-13T15:50:40.929Z,15.90
2018-09-13T15:51:41.122Z,15.50
2018-09-13T15:52:41.323Z,17.00
2018-09-13T15:53:41.518Z,16.80
2018-09-13T15:54:41.714Z,15.80
2018-09-13T15:55:41.902Z,16.30
2018-09-13T15:56:42.091Z,15.80
2018-09-13T15:57:42.287Z,15.90
2018-09-13T15:58:42.478Z,17.70
2018-09-13T15:59:42.669Z,17.40
2018-09-13T16:00:42.865Z,17.90
2018-09-13T16:01:43.057Z,20.40
2018-09-13T16:02:43.244Z,18.10
2018-09-13T16:03:43.432Z,21.00
2018-09-13T16:04:43.620Z,18.90
2018-09-13T16:05:43.819Z,19.30
2018-09-13T16:06:44.013Z,18.50
2018-09-13T16:07:44.204Z,14.40
2018-09-13T16:08:44.399Z,16.20
2018-09-13T16:09:44.596Z,16.60
2018-09-13T16:10:44.795Z,18.00
2018-09-13T16:11:44.981Z,19.70
2018-09-13T16:12:45.244Z,18.50
2018-09-13T16:13:45.382Z,16.20
2018-09-13T16:14:45.677Z,14.70
2018-09-13T16:15:45.823Z,15.20
2018-09-13T16:16:46.014Z,15.90
2018-09-13T16:17:46.208Z,19.30
2018-09-13T16:18:46.400Z,21.00
2018-09-13T16:19:46.596Z,18.40
2018-09-13T16:20:46.834Z,22.60
2018-09-13T16:21:46.992Z,17.30
2018-09-13T16:22:47.183Z,21.50
2018-09-13T16:23:47.381Z,16.40
2018-09-13T16:24:47.573Z,16.60
2018-09-13T16:25:47.763Z,20.00
2018-09-13T16:26:47.959Z,16.80
2018-09-13T16:27:48.160Z,18.20
2018-09-13T16:28:48.347Z,19.60
2018-09-13T16:29:48.540Z,20.10
2018-09-13T16:30:48.739Z,14.50
2018-09-13T16:31:48.942Z,14.10
2018-09-13T16:32:49.141Z,16.00
2018-09-13T16:33:49.358Z,15.90
2018-09-13T16:34:49.619Z,13.50
2018-09-13T16:35:49.711Z,14.40
2018-09-13T16:36:49.918Z,13.50
2018-09-13T16:37:50.104Z,14.10
2018-09-13T16:38:50.297Z,16.40
2018-09-13T16:39:50.490Z,15.50
2018-09-13T16:40:50.676Z,13.40
2018-09-13T16:41:50.880Z,12.60
2018-09-13T16:42:51.067Z,12.00
2018-09-13T16:43:51.261Z,13.90
2018-09-13T16:44:51.451Z,14.30
2018-09-13T16:45:51.643Z,12.50
2018-09-13T16:46:51.839Z,14.80
2018-09-13T16:47:52.068Z,13.90
2018-09-13T16:48:52.217Z,12.30
2018-09-13T16:49:52.412Z,14.50
2018-09-13T16:50:52.605Z,13.00
2018-09-13T16:51:52.792Z,13.90
2018-09-13T16:52:52.996Z,15.40
2018-09-13T16:53:53.172Z,13.40
2018-09-13T16:54:53.361Z,15.50
2018-09-13T16:55:53.552Z,11.10
2018-09-13T16:56:54.053Z,15.50
2018-09-13T16:57:54.100Z,12.90
2018-09-13T16:58:54.145Z,16.10
2018-09-13T16:59:54.338Z,14.70
2018-09-13T17:00:54.525Z,12.40
2018-09-13T17:01:54.719Z,13.90
2018-09-13T17:02:54.910Z,12.80
2018-09-13T17:03:55.107Z,12.70
2018-09-13T17:04:55.305Z,16.10
2018-09-13T17:05:55.496Z,13.40
2018-09-13T17:06:55.730Z,15.40
2018-09-13T17:07:55.894Z,13.10
2018-09-13T17:08:56.093Z,11.80
2018-09-13T17:09:56.291Z,11.50
2018-09-13T17:10:56.483Z,13.40
2018-09-13T17:11:56.692Z,14.40
2018-09-13T17:12:56.914Z,14.10
2018-09-13T17:13:57.095Z,14.60
2018-09-13T17:14:57.292Z,12.20
2018-09-13T17:15:57.480Z,12.70
2018-09-13T17:16:57.669Z,13.00
2018-09-13T17:17:57.872Z,14.30
2018-09-13T17:18:58.184Z,12.60
2018-09-13T17:19:58.248Z,14.20
2018-09-13T17:20:58.437Z,13.40
2018-09-13T17:21:58.655Z,13.80
2018-09-13T17:22:58.836Z,14.60
2018-09-13T17:23:59.023Z,17.90
2018-09-13T17:24:59.231Z,13.80
2018-09-13T17:25:59.416Z,12.80
2018-09-13T17:26:59.614Z,12.20
2018-09-13T17:27:59.821Z,12.70
2018-09-13T17:28:59.998Z,17.00
2018-09-13T17:30:00.196Z,15.00
2018-09-13T17:31:00.390Z,16.30
2018-09-13T17:32:00.582Z,17.10
2018-09-13T17:33:00.781Z,16.90
2018-09-13T17:34:01.026Z,16.20
2018-09-13T17:35:01.181Z,14.10
2018-09-13T17:36:01.382Z,18.20
2018-09-13T17:37:01.576Z,16.10
2018-09-13T17:38:01.767Z,18.40
2018-09-13T17:39:01.962Z,18.70
2018-09-13T17:40:02.152Z,18.30
2018-09-13T17:41:02.339Z,16.50
2018-09-13T17:42:02.534Z,19.20
2018-09-13T17:43:02.716Z,17.50
2018-09-13T17:44:02.916Z,16.90
2018-09-13T17:45:03.172Z,17.10
2018-09-13T17:46:03.352Z,17.20
2018-09-13T17:47:03.546Z,17.20
2018-09-13T17:48:03.781Z,16.10
2018-09-13T17:49:03.915Z,18.80
2018-09-13T17:50:04.116Z,15.80
2018-09-13T17:51:04.319Z,16.40
2018-09-13T17:52:04.534Z,15.30
2018-09-13T17:53:04.767Z,15.70
2018-09-13T17:54:04.916Z,14.20
2018-09-13T17:55:05.100Z,14.80
2018-09-13T17:56:05.299Z,16.80
2018-09-13T17:57:05.493Z,18.20
2018-09-13T17:58:05.681Z,19.20
2018-09-13T17:59:05.868Z,17.10
2018-09-13T18:00:06.061Z,17.10
2018-09-13T18:01:06.266Z,18.10
2018-09-13T18:02:06.479Z,16.40
2018-09-13T18:03:06.709Z,14.10
2018-09-13T18:04:06.894Z,16.80
2018-09-13T18:05:07.082Z,16.80
2018-09-13T18:06:07.279Z,16.40
2018-09-13T18:07:07.464Z,16.00
2018-09-13T18:08:07.665Z,17.90
2018-09-13T18:09:07.848Z,19.10
2018-09-13T18:10:08.032Z,16.80
2018-09-13T18:11:08.244Z,17.70
2018-09-13T18:12:08.436Z,19.50
2018-09-13T18:13:08.629Z,15.70
2018-09-13T18:14:08.835Z,17.40
2018-09-13T18:15:09.070Z,17.70
2018-09-13T18:16:09.224Z,16.80
2018-09-13T18:17:09.416Z,18.30
2018-09-13T18:18:09.611Z,16.80
2018-09-13T18:19:09.814Z,19.60
2018-09-13T18:20:10.001Z,17.70
2018-09-13T18:21:10.194Z,17.60
2018-09-13T18:22:10.431Z,14.80
2018-09-13T18:23:10.605Z,18.10
2018-09-13T18:24:10.834Z,18.30
2018-09-13T18:25:10.970Z,17.70
2018-09-13T18:26:11.166Z,16.40
2018-09-13T18:27:11.348Z,18.00
2018-09-13T18:28:11.543Z,15.20
2018-09-13T18:29:11.726Z,14.80
2018-09-13T18:30:11.932Z,17.60
2018-09-13T18:31:12.123Z,17.60
2018-09-13T18:32:12.313Z,18.30
2018-09-13T18:33:12.499Z,15.30
2018-09-13T18:34:12.710Z,17.70
2018-09-13T18:35:12.901Z,17.80
2018-09-13T18:36:13.090Z,14.80
2018-09-13T18:37:13.290Z,17.60
2018-09-13T18:38:13.477Z,16.10
2018-09-13T18:39:13.672Z,16.00
2018-09-13T18:40:13.860Z,16.80
2018-09-13T18:41:14.051Z,16.30
2018-09-13T18:42:14.254Z,19.40
2018-09-13T18:43:14.448Z,19.70
2018-09-13T18:44:14.641Z,17.80
2018-09-13T18:45:14.900Z,20.70
2018-09-13T18:46:15.022Z,19.70
2018-09-13T18:47:15.214Z,20.30
2018-09-13T18:48:15.401Z,18.60
2018-09-13T18:49:15.605Z,20.40
2018-09-13T18:50:15.799Z,19.20
2018-09-13T18:51:16.005Z,20.40
2018-09-13T18:52:16.199Z,21.20
2018-09-13T18:53:16.391Z,19.70
2018-09-13T18:54:16.624Z,21.00
2018-09-13T18:55:16.772Z,19.80
2018-09-13T18:56:16.964Z,18.20
2018-09-13T18:57:17.153Z,21.90
2018-09-13T18:58:17.352Z,20.10
2018-09-13T18:59:17.536Z,21.10
2018-09-13T19:00:17.734Z,24.00
2018-09-13T19:01:17.933Z,21.30
2018-09-13T19:02:18.116Z,20.80
2018-09-13T19:03:18.331Z,19.20
2018-09-13T19:04:18.534Z,22.90
2018-09-13T19:05:18.753Z,22.80
2018-09-13T19:06:18.893Z,22.30
2018-09-13T19:07:19.075Z,21.00
2018-09-13T19:08:19.270Z,21.80
2018-09-13T19:09:19.473Z,20.60
2018-09-13T19:10:19.668Z,22.40